createdAt,value
2018-02-19T06:49:41.355Z,33.35
2018-02-19T06:52:07.761Z,36.38
2018-02-19T06:54:34.129Z,36.15
2018-02-19T06:57:00.522Z,34.70
2018-02-19T06:59:26.950Z,36.78
2018-02-19T07:01:53.391Z,34.75
2018-02-19T07:04:19.770Z,32.42
2018-02-19T07:06:46.509Z,31.17
2018-02-19T07:09:12.952Z,35.17
2018-02-19T07:11:39.407Z,31.80
2018-02-19T07:14:06.610Z,35.15
2018-02-19T07:16:32.985Z,32.50
2018-02-19T07:18:59.379Z,35.53
2018-02-19T07:21:25.786Z,36.20
2018-02-19T07:23:52.198Z,35.85
2018-02-19T07:26:19.305Z,32.72
2018-02-19T07:28:45.705Z,31.17
2018-02-19T07:31:12.158Z,29.65
2018-02-19T07:33:38.571Z,28.75
2018-02-19T07:36:05.072Z,29.83
2018-02-19T07:38:31.439Z,29.15
2018-02-19T07:40:57.859Z,44.53
2018-02-19T07:43:25.093Z,33.05
2018-02-19T07:45:51.550Z,32.83
2018-02-19T07:48:18.750Z,31.92
2018-02-19T07:50:45.193Z,32.53
2018-02-19T07:53:11.630Z,29.23
2018-02-19T07:55:38.150Z,30.60
2018-02-19T07:58:04.607Z,30.65
2018-02-19T08:00:31.072Z,29.70
2018-02-19T08:02:58.243Z,32.40
2018-02-19T08:05:24.672Z,41.83
2018-02-19T08:07:51.140Z,27.62
2018-02-19T08:10:17.532Z,29.87
2018-02-19T08:12:44.651Z,30.77
2018-02-19T08:15:11.262Z,32.72
2018-02-19T08:17:37.646Z,29.15
2018-02-19T08:20:04.811Z,27.20
2018-02-19T08:22:32.026Z,28.70
2018-02-19T08:24:58.413Z,33.75
2018-02-19T08:27:24.826Z,32.17
2018-02-19T08:29:51.949Z,28.97
2018-02-19T08:32:25.316Z,33.40
2018-02-19T08:34:51.711Z,30.02
2018-02-19T08:37:18.166Z,31.48
2018-02-19T08:39:44.590Z,28.87
2018-02-19T08:42:10.970Z,28.65
2018-02-19T08:44:37.383Z,35.92
2018-02-19T08:47:03.767Z,33.38
2018-02-19T08:49:30.194Z,29.98
2018-02-19T08:51:56.600Z,26.85
2018-02-19T08:54:23.215Z,26.05
2018-02-19T08:56:49.618Z,25.08
2018-02-19T08:59:16.782Z,27.77
2018-02-19T09:01:43.951Z,26.55
2018-02-19T09:04:10.346Z,27.37
2018-02-19T09:06:37.500Z,27.73
2018-02-19T09:09:04.696Z,26.33
2018-02-19T09:11:31.102Z,28.87
2018-02-19T09:14:01.848Z,27.23
2018-02-19T09:16:28.385Z,27.98
2018-02-19T09:18:54.786Z,28.58
2018-02-19T09:21:21.176Z,22.00
2018-02-19T09:23:47.588Z,24.48
2018-02-19T09:26:14.093Z,26.42
2018-02-19T09:28:40.512Z,24.60
2018-02-19T09:31:06.924Z,24.80
2018-02-19T09:33:33.303Z,27.85
2018-02-19T09:36:00.449Z,25.98
2018-02-19T09:38:27.576Z,24.20
2018-02-19T09:40:53.994Z,25.10
2018-02-19T09:43:20.382Z,25.33
2018-02-19T09:45:47.539Z,25.08
2018-02-19T09:48:14.690Z,23.38
2018-02-19T09:50:41.815Z,24.95
2018-02-19T09:53:08.257Z,24.37
2018-02-19T09:55:34.651Z,24.25
2018-02-19T09:58:01.071Z,24.92
2018-02-19T10:00:27.535Z,23.98
2018-02-19T10:02:53.975Z,24.48
2018-02-19T10:05:20.417Z,23.17
2018-02-19T10:07:46.828Z,23.87
2018-02-19T10:10:13.404Z,21.62
2018-02-19T10:12:39.810Z,21.80
2018-02-19T10:15:06.209Z,20.17
2018-02-19T10:17:32.618Z,22.40
2018-02-19T10:19:59.768Z,21.75
2018-02-19T10:22:26.930Z,21.45
2018-02-19T10:24:53.326Z,20.80
2018-02-19T10:27:19.734Z,23.17
2018-02-19T11:38:10.138Z,24.50
2018-02-19T11:40:36.554Z,24.08
2018-02-19T11:43:02.929Z,25.67
2018-02-19T11:45:29.375Z,28.70
2018-02-19T11:47:56.500Z,25.33
2018-02-19T11:50:22.905Z,23.25
2018-02-19T11:52:49.315Z,24.80
2018-02-19T11:55:15.745Z,21.05
2018-02-19T11:57:42.887Z,21.95
2018-02-19T12:00:10.008Z,21.58
2018-02-19T12:02:36.414Z,23.30
2018-02-19T12:05:02.822Z,24.45
2018-02-19T12:07:29.235Z,22.65
2018-02-19T15:00:47.766Z,31.77
2018-02-19T15:03:14.188Z,31.60
2018-02-19T15:05:40.565Z,29.35
2018-02-19T15:08:13.976Z,33.42
2018-02-19T15:10:40.390Z,31.27
2018-02-19T15:13:06.757Z,32.05
2018-02-19T15:15:33.169Z,32.45
2018-02-19T15:17:59.619Z,33.92
2018-02-19T15:20:26.061Z,33.47
2018-02-19T15:22:52.499Z,33.90
2018-02-19T15:25:18.928Z,40.85
2018-02-19T15:27:46.072Z,39.47
2018-02-19T15:30:12.459Z,36.97
2018-02-19T15:32:38.870Z,37.30
2018-02-19T15:35:05.986Z,33.13
2018-02-19T15:37:32.418Z,37.13
2018-02-19T15:39:58.803Z,37.88
2018-02-19T15:42:25.219Z,34.83
2018-02-19T15:44:52.371Z,36.15
2018-02-19T15:47:19.515Z,36.65
2018-02-19T15:49:46.690Z,38.03
2018-02-19T15:52:13.070Z,36.65
2018-02-19T15:54:39.485Z,46.33
2018-02-19T15:57:05.870Z,40.12
2018-02-19T15:59:33.137Z,39.20
2018-02-19T16:02:00.278Z,39.53
2018-02-19T16:04:27.418Z,41.13
2018-02-19T16:06:53.823Z,48.15
2018-02-19T16:09:20.223Z,39.67
2018-02-19T16:11:46.687Z,35.50
2018-02-19T16:14:13.086Z,38.55
2018-02-19T16:16:39.509Z,38.17
2018-02-19T16:19:05.945Z,36.83
2018-02-19T16:21:33.170Z,37.38
2018-02-19T16:23:59.583Z,40.00
2018-02-19T16:26:25.990Z,35.65
2018-02-19T16:28:52.510Z,33.63
2018-02-19T16:31:18.901Z,34.78
2018-02-19T16:33:46.102Z,36.05
2018-02-19T16:36:12.484Z,32.38
2018-02-19T16:38:38.900Z,34.23
2018-02-19T16:41:05.315Z,48.60
2018-02-19T16:43:32.096Z,86.63
2018-02-19T16:45:58.668Z,62.62
2018-02-19T16:48:25.362Z,65.25
2018-02-19T16:50:52.138Z,41.83
2018-02-19T16:53:20.763Z,35.75
2018-02-19T16:55:47.547Z,37.65
2018-02-19T16:58:15.180Z,42.77
2018-02-19T17:00:41.733Z,37.20
2018-02-19T17:03:08.564Z,36.75
2018-02-19T17:05:35.534Z,37.53
2018-02-19T17:08:02.022Z,41.30
2018-02-19T17:10:28.911Z,39.78
2018-02-19T17:12:55.321Z,44.40
2018-02-19T17:15:21.742Z,40.63
2018-02-19T17:17:48.184Z,40.38
2018-02-19T17:20:14.607Z,38.97
2018-02-19T17:22:41.144Z,38.10
2018-02-19T17:25:07.564Z,36.17
2018-02-19T17:27:34.713Z,36.15
2018-02-19T17:30:01.867Z,36.92
2018-02-19T17:32:29.056Z,38.22
2018-02-19T17:34:55.538Z,36.38
2018-02-19T17:37:21.957Z,37.25
2018-02-19T17:39:48.361Z,37.05
2018-02-19T17:42:14.792Z,35.90
2018-02-19T17:44:41.222Z,34.03
2018-02-19T17:47:07.691Z,38.30
2018-02-19T17:49:34.151Z,34.70
2018-02-19T17:52:00.577Z,40.72
2018-02-19T17:54:28.963Z,37.00
2018-02-19T17:56:56.784Z,35.00
2018-02-19T17:59:23.226Z,35.20
2018-02-19T18:01:49.694Z,33.50
2018-02-19T18:04:16.147Z,37.45
2018-02-19T18:06:43.375Z,37.67
2018-02-19T18:09:09.956Z,95.78
2018-02-19T18:11:36.347Z,90.95
2018-02-19T18:14:02.780Z,41.25
2018-02-19T18:16:29.200Z,36.30
2018-02-19T18:18:55.701Z,37.35
2018-02-19T18:21:22.142Z,39.35
2018-02-19T18:23:48.587Z,40.55
2018-02-19T18:26:20.473Z,41.65
2018-02-19T18:28:51.688Z,42.62
2018-02-19T18:31:21.675Z,42.65
2018-02-19T18:33:48.878Z,48.55
2018-02-19T18:36:15.289Z,57.47
2018-02-19T18:38:41.746Z,49.78
2018-02-19T18:41:08.174Z,50.23
2018-02-19T18:43:34.592Z,51.65
2018-02-19T18:46:00.975Z,48.70
2018-02-19T18:48:27.406Z,47.28
2018-02-19T18:50:53.789Z,41.95
2018-02-19T18:53:20.197Z,42.20
2018-02-19T18:55:47.441Z,42.30
2018-02-19T18:58:13.837Z,40.10
2018-02-19T19:00:40.235Z,39.78
2018-02-19T19:03:06.678Z,43.83
2018-02-19T19:05:33.098Z,41.33
2018-02-19T19:08:11.857Z,44.08
2018-02-19T19:10:51.405Z,44.65
2018-02-19T19:13:17.942Z,48.08
2018-02-19T19:15:44.331Z,52.30
2018-02-19T19:18:11.579Z,48.87
2018-02-19T19:20:38.685Z,46.90
2018-02-19T19:23:05.108Z,48.22
2018-02-19T19:25:31.521Z,44.58
2018-02-19T19:27:57.925Z,46.58
2018-02-19T19:30:25.086Z,53.10
2018-02-19T19:32:52.214Z,57.95
2018-02-19T19:35:19.371Z,54.75
2018-02-19T19:37:46.546Z,53.70
2018-02-19T19:40:12.970Z,54.35
2018-02-19T19:42:40.087Z,59.33
2018-02-19T19:45:06.503Z,138.18
2018-02-19T19:47:32.966Z,63.30
2018-02-19T19:50:00.104Z,53.47
2018-02-19T19:52:26.485Z,44.90
2018-02-19T19:54:53.714Z,47.40
2018-02-19T19:57:20.095Z,42.53
2018-02-19T20:04:39.882Z,62.60
2018-02-19T20:07:06.353Z,57.38
2018-02-19T20:09:32.727Z,65.10
2018-02-19T20:11:59.166Z,70.00
2018-02-19T20:14:25.580Z,50.58
2018-02-19T20:16:52.018Z,50.12
2018-02-19T20:19:18.421Z,47.33
2018-02-19T20:21:44.807Z,48.78
2018-02-19T20:24:11.945Z,54.85
2018-02-19T20:26:39.090Z,45.25
2018-02-19T20:29:05.493Z,49.83
2018-02-19T20:31:31.883Z,56.33
2018-02-19T20:33:59.055Z,49.33
2018-02-19T20:36:25.458Z,49.13
2018-02-19T20:38:52.569Z,51.13
2018-02-19T20:41:19.090Z,48.85
2018-02-19T20:43:45.475Z,45.65
2018-02-19T20:46:12.633Z,51.15
2018-02-19T20:48:39.035Z,51.30
2018-02-19T20:51:05.450Z,60.88
2018-02-19T20:53:31.857Z,53.58
2018-02-19T20:55:59.026Z,57.25
2018-02-19T20:58:25.431Z,56.10
2018-02-19T21:00:52.592Z,54.00
2018-02-19T21:03:19.733Z,54.70
2018-02-19T21:05:46.912Z,56.05
2018-02-19T21:08:13.320Z,52.60
2018-02-19T21:10:40.480Z,51.55
2018-02-19T21:13:07.635Z,42.55
2018-02-19T21:15:34.790Z,52.00
2018-02-19T21:18:01.179Z,52.17
2018-02-19T21:20:27.583Z,59.65
2018-02-19T21:22:53.953Z,52.08
2018-02-19T21:25:20.374Z,52.00
2018-02-19T21:27:46.743Z,51.97
2018-02-19T21:30:13.886Z,56.72
2018-02-19T21:32:41.061Z,54.78
2018-02-19T21:35:08.241Z,66.15
2018-02-19T21:37:34.639Z,61.33
2018-02-19T21:40:01.902Z,59.10
2018-02-19T21:42:28.310Z,53.90
2018-02-19T21:44:54.693Z,52.42
2018-02-19T21:47:21.086Z,53.97
2018-02-19T21:49:48.216Z,53.05
2018-02-19T21:52:15.351Z,59.78
2018-02-19T21:54:41.748Z,51.97
2018-02-19T21:57:08.132Z,54.63
2018-02-19T21:59:34.535Z,55.80
2018-02-19T22:02:00.932Z,57.28
2018-02-19T22:04:28.092Z,56.60
2018-02-19T22:06:54.510Z,54.63
2018-02-19T22:09:21.678Z,52.45
2018-02-19T22:11:48.086Z,55.92
2018-02-19T22:14:15.200Z,60.80
2018-02-19T22:16:41.614Z,55.78
2018-02-19T22:19:07.995Z,49.50
2018-02-19T22:21:34.414Z,55.83
2018-02-19T22:24:00.806Z,55.67
2018-02-19T22:26:27.185Z,55.38
2018-02-19T22:28:53.614Z,65.00
2018-02-19T22:31:19.997Z,69.45
2018-02-19T22:33:47.135Z,64.75
2018-02-19T22:36:14.271Z,66.45
2018-02-19T22:38:40.670Z,57.17
2018-02-19T22:41:07.053Z,66.28
2018-02-19T22:43:34.199Z,64.55
2018-02-19T22:46:00.605Z,59.83
2018-02-19T22:48:26.992Z,59.55
2018-02-19T22:50:53.457Z,58.22
2018-02-19T22:53:19.850Z,61.97
2018-02-19T22:55:47.005Z,55.88
2018-02-19T22:58:14.163Z,65.22
2018-02-19T23:00:40.606Z,65.00
2018-02-19T23:03:06.975Z,64.35
2018-02-19T23:05:33.381Z,62.72
2018-02-19T23:07:59.754Z,61.20
2018-02-19T23:10:26.161Z,64.72
2018-02-19T23:12:52.586Z,63.20
2018-02-19T23:15:18.966Z,62.13
2018-02-19T23:17:46.106Z,61.37
2018-02-19T23:20:12.494Z,60.42
2018-02-19T23:22:38.885Z,63.53
2018-02-19T23:25:06.037Z,66.85
2018-02-19T23:27:32.449Z,64.12
2018-02-19T23:29:58.857Z,63.45
2018-02-19T23:32:25.249Z,59.73
2018-02-19T23:34:52.397Z,60.28
2018-02-19T23:37:19.529Z,62.03
2018-02-19T23:39:45.942Z,58.63
2018-02-19T23:42:12.318Z,56.92
2018-02-19T23:44:38.722Z,58.60
2018-02-19T23:47:05.103Z,60.72
2018-02-19T23:49:32.238Z,60.92
2018-02-19T23:51:58.730Z,63.40
2018-02-19T23:54:34.413Z,65.15
2018-02-19T23:57:00.779Z,63.60
2018-02-19T23:59:27.914Z,60.60
